sensor_id;sensor_type;location;lat;lon;timestamp;P1;durP1;ratioP1;P2;durP2;ratioP2
38190;SDS011;25191;47.510;19.124;2023-11-21T00:10:47;4.93;;;4.05;;
38190;SDS011;25191;47.510;19.124;2023-11-21T00:30:48;5.60;;;3.78;;
38190;SDS011;25191;47.510;19.124;2023-11-21T00:50:48;4.55;;;3.60;;
38190;SDS011;25191;47.510;19.124;2023-11-21T01:10:50;4.75;;;3.92;;
38190;SDS011;25191;47.510;19.124;2023-11-21T01:30:50;4.20;;;3.53;;
38190;SDS011;25191;47.510;19.124;2023-11-21T01:50:51;5.22;;;3.83;;
38190;SDS011;25191;47.510;19.124;2023-11-21T02:10:51;4.60;;;3.40;;
38190;SDS011;25191;47.510;19.124;2023-11-21T02:30:52;3.83;;;3.28;;
38190;SDS011;25191;47.510;19.124;2023-11-21T02:50:56;3.83;;;3.17;;
38190;SDS011;25191;47.510;19.124;2023-11-21T03:10:58;3.83;;;3.13;;
38190;SDS011;25191;47.510;19.124;2023-11-21T03:30:58;3.78;;;3.28;;
38190;SDS011;25191;47.510;19.124;2023-11-21T03:50:59;9.88;;;3.47;;
38190;SDS011;25191;47.510;19.124;2023-11-21T04:10:59;4.70;;;3.70;;
38190;SDS011;25191;47.510;19.124;2023-11-21T04:31:01;4.03;;;3.33;;
38190;SDS011;25191;47.510;19.124;2023-11-21T04:51:02;5.53;;;3.97;;
38190;SDS011;25191;47.510;19.124;2023-11-21T05:11:04;5.13;;;4.40;;
38190;SDS011;25191;47.510;19.124;2023-11-21T05:31:04;6.35;;;4.13;;
38190;SDS011;25191;47.510;19.124;2023-11-21T05:51:05;11.32;;;4.82;;
38190;SDS011;25191;47.510;19.124;2023-11-21T06:11:06;12.93;;;4.95;;
38190;SDS011;25191;47.510;19.124;2023-11-21T06:31:10;44.97;;;27.67;;
38190;SDS011;25191;47.510;19.124;2023-11-21T06:51:10;68.32;;;29.13;;
38190;SDS011;25191;47.510;19.124;2023-11-21T07:11:11;54.10;;;20.67;;
38190;SDS011;25191;47.510;19.124;2023-11-21T07:31:12;36.53;;;15.90;;
38190;SDS011;25191;47.510;19.124;2023-11-21T07:51:12;30.52;;;14.68;;
38190;SDS011;25191;47.510;19.124;2023-11-21T08:11:13;28.05;;;12.75;;
38190;SDS011;25191;47.510;19.124;2023-11-21T08:31:13;25.58;;;12.35;;
38190;SDS011;25191;47.510;19.124;2023-11-21T08:51:14;21.33;;;10.85;;
38190;SDS011;25191;47.510;19.124;2023-11-21T09:11:14;17.08;;;10.60;;
38190;SDS011;25191;47.510;19.124;2023-11-21T09:31:16;16.98;;;10.40;;
38190;SDS011;25191;47.510;19.124;2023-11-21T09:51:17;18.65;;;9.52;;
38190;SDS011;25191;47.510;19.124;2023-11-21T10:11:20;15.10;;;9.00;;
38190;SDS011;25191;47.510;19.124;2023-11-21T10:31:32;15.00;;;8.70;;
38190;SDS011;25191;47.510;19.124;2023-11-21T10:51:35;15.15;;;8.68;;
38190;SDS011;25191;47.510;19.124;2023-11-21T11:11:36;14.93;;;8.50;;
38190;SDS011;25191;47.510;19.124;2023-11-21T11:52:35;16.58;;;8.63;;
38190;SDS011;25191;47.510;19.124;2023-11-21T12:12:50;14.18;;;7.65;;
38190;SDS011;25191;47.510;19.124;2023-11-21T12:32:52;9.95;;;4.90;;
38190;SDS011;25191;47.510;19.124;2023-11-21T12:52:58;8.15;;;5.50;;
38190;SDS011;25191;47.510;19.124;2023-11-21T13:13:00;8.75;;;5.30;;
38190;SDS011;25191;47.510;19.124;2023-11-21T13:33:06;8.57;;;6.03;;
38190;SDS011;25191;47.510;19.124;2023-11-21T13:53:11;14.57;;;6.78;;
38190;SDS011;25191;47.510;19.124;2023-11-21T14:13:20;10.02;;;6.90;;
38190;SDS011;25191;47.510;19.124;2023-11-21T14:33:24;13.00;;;8.05;;
38190;SDS011;25191;47.510;19.124;2023-11-21T14:53:24;14.30;;;7.80;;
38190;SDS011;25191;47.510;19.124;2023-11-21T15:13:42;11.93;;;8.48;;
38190;SDS011;25191;47.510;19.124;2023-11-21T15:33:43;10.20;;;7.47;;
38190;SDS011;25191;47.510;19.124;2023-11-21T15:53:43;9.40;;;6.60;;
38190;SDS011;25191;47.510;19.124;2023-11-21T16:13:44;10.38;;;6.13;;
38190;SDS011;25191;47.510;19.124;2023-11-21T16:33:46;9.68;;;6.28;;
38190;SDS011;25191;47.510;19.124;2023-11-21T16:53:46;13.05;;;6.00;;
38190;SDS011;25191;47.510;19.124;2023-11-21T17:13:47;12.40;;;5.30;;
38190;SDS011;25191;47.510;19.124;2023-11-21T17:33:48;11.63;;;5.63;;
38190;SDS011;25191;47.510;19.124;2023-11-21T17:53:48;10.80;;;7.22;;
38190;SDS011;25191;47.510;19.124;2023-11-21T18:13:49;20.08;;;13.07;;
38190;SDS011;25191;47.510;19.124;2023-11-21T18:33:49;60.30;;;26.40;;
38190;SDS011;25191;47.510;19.124;2023-11-21T18:53:49;56.90;;;26.98;;
38190;SDS011;25191;47.510;19.124;2023-11-21T19:13:50;61.30;;;27.40;;
38190;SDS011;25191;47.510;19.124;2023-11-21T19:33:50;46.08;;;22.50;;
38190;SDS011;25191;47.510;19.124;2023-11-21T19:53:53;39.75;;;19.88;;
38190;SDS011;25191;47.510;19.124;2023-11-21T20:13:59;37.40;;;17.02;;
38190;SDS011;25191;47.510;19.124;2023-11-21T20:34:00;28.90;;;14.07;;
38190;SDS011;25191;47.510;19.124;2023-11-21T20:54:00;27.17;;;13.10;;
38190;SDS011;25191;47.510;19.124;2023-11-21T21:14:01;21.60;;;11.80;;
38190;SDS011;25191;47.510;19.124;2023-11-21T21:34:02;19.33;;;10.95;;
38190;SDS011;25191;47.510;19.124;2023-11-21T21:54:02;18.38;;;9.98;;
38190;SDS011;25191;47.510;19.124;2023-11-21T22:14:05;16.45;;;9.43;;
38190;SDS011;25191;47.510;19.124;2023-11-21T22:34:05;15.25;;;8.82;;
38190;SDS011;25191;47.510;19.124;2023-11-21T22:54:06;12.95;;;8.18;;
38190;SDS011;25191;47.510;19.124;2023-11-21T23:14:13;12.57;;;8.18;;
38190;SDS011;25191;47.510;19.124;2023-11-21T23:34:13;11.25;;;7.30;;
38190;SDS011;25191;47.510;19.124;2023-11-21T23:54:14;10.95;;;6.80;;
